sensor_id;sensor_type;location;lat;lon;timestamp;P1;durP1;ratioP1;P2;durP2;ratioP2
43014;SDS011;28637;50.554;7.032;2023-05-07T00:02:47;2.07;;;1.60;;
43014;SDS011;28637;50.554;7.032;2023-05-07T00:07:48;1.87;;;1.50;;
43014;SDS011;28637;50.554;7.032;2023-05-07T00:12:48;2.10;;;1.53;;
43014;SDS011;28637;50.554;7.032;2023-05-07T00:17:49;2.13;;;1.93;;
43014;SDS011;28637;50.554;7.032;2023-05-07T00:22:49;2.43;;;1.77;;
43014;SDS011;28637;50.554;7.032;2023-05-07T00:27:50;2.67;;;1.77;;
43014;SDS011;28637;50.554;7.032;2023-05-07T00:32:51;2.33;;;1.90;;
43014;SDS011;28637;50.554;7.032;2023-05-07T00:37:51;2.87;;;1.77;;
43014;SDS011;28637;50.554;7.032;2023-05-07T00:42:52;3.47;;;1.90;;
43014;SDS011;28637;50.554;7.032;2023-05-07T00:47:57;2.00;;;1.80;;
43014;SDS011;28637;50.554;7.032;2023-05-07T00:52:59;2.33;;;1.70;;
43014;SDS011;28637;50.554;7.032;2023-05-07T00:58:00;2.27;;;1.80;;
43014;SDS011;28637;50.554;7.032;2023-05-07T01:03:01;2.80;;;1.80;;
43014;SDS011;28637;50.554;7.032;2023-05-07T01:08:02;2.13;;;1.53;;
43014;SDS011;28637;50.554;7.032;2023-05-07T01:13:03;3.17;;;1.85;;
43014;SDS011;28637;50.554;7.032;2023-05-07T01:18:05;1.88;;;1.60;;
43014;SDS011;28637;50.554;7.032;2023-05-07T01:23:06;1.92;;;1.42;;
43014;SDS011;28637;50.554;7.032;2023-05-07T01:28:07;2.00;;;1.53;;
43014;SDS011;28637;50.554;7.032;2023-05-07T01:33:09;1.83;;;1.60;;
43014;SDS011;28637;50.554;7.032;2023-05-07T01:38:13;3.08;;;1.63;;
43014;SDS011;28637;50.554;7.032;2023-05-07T01:43:14;4.63;;;1.67;;
43014;SDS011;28637;50.554;7.032;2023-05-07T01:48:15;2.23;;;1.70;;
43014;SDS011;28637;50.554;7.032;2023-05-07T01:53:16;2.60;;;1.90;;
43014;SDS011;28637;50.554;7.032;2023-05-07T01:58:17;3.60;;;1.90;;
43014;SDS011;28637;50.554;7.032;2023-05-07T02:03:17;1.70;;;1.60;;
43014;SDS011;28637;50.554;7.032;2023-05-07T02:08:18;9.37;;;1.87;;
43014;SDS011;28637;50.554;7.032;2023-05-07T02:13:18;3.93;;;2.00;;
43014;SDS011;28637;50.554;7.032;2023-05-07T02:18:19;7.70;;;1.97;;
43014;SDS011;28637;50.554;7.032;2023-05-07T02:23:20;4.40;;;1.90;;
43014;SDS011;28637;50.554;7.032;2023-05-07T02:28:21;4.10;;;1.70;;
43014;SDS011;28637;50.554;7.032;2023-05-07T02:33:21;4.17;;;1.87;;
43014;SDS011;28637;50.554;7.032;2023-05-07T02:38:22;2.90;;;1.60;;
43014;SDS011;28637;50.554;7.032;2023-05-07T02:43:23;4.03;;;1.90;;
43014;SDS011;28637;50.554;7.032;2023-05-07T02:48:23;2.13;;;1.80;;
43014;SDS011;28637;50.554;7.032;2023-05-07T02:53:24;1.97;;;1.70;;
43014;SDS011;28637;50.554;7.032;2023-05-07T03:03:27;2.35;;;1.75;;
43014;SDS011;28637;50.554;7.032;2023-05-07T03:08:27;3.00;;;1.50;;
43014;SDS011;28637;50.554;7.032;2023-05-07T03:13:28;1.87;;;1.73;;
43014;SDS011;28637;50.554;7.032;2023-05-07T03:18:28;3.07;;;1.60;;
43014;SDS011;28637;50.554;7.032;2023-05-07T03:23:29;4.93;;;1.60;;
43014;SDS011;28637;50.554;7.032;2023-05-07T03:28:30;3.03;;;1.80;;
43014;SDS011;28637;50.554;7.032;2023-05-07T03:33:32;2.73;;;1.67;;
43014;SDS011;28637;50.554;7.032;2023-05-07T03:38:33;2.00;;;1.60;;
43014;SDS011;28637;50.554;7.032;2023-05-07T03:43:34;2.53;;;1.87;;
43014;SDS011;28637;50.554;7.032;2023-05-07T03:48:35;2.90;;;1.67;;
43014;SDS011;28637;50.554;7.032;2023-05-07T03:53:35;3.50;;;1.80;;
43014;SDS011;28637;50.554;7.032;2023-05-07T03:58:36;3.73;;;1.70;;
43014;SDS011;28637;50.554;7.032;2023-05-07T04:03:37;4.63;;;1.60;;
43014;SDS011;28637;50.554;7.032;2023-05-07T04:08:37;1.87;;;1.63;;
43014;SDS011;28637;50.554;7.032;2023-05-07T04:13:38;2.33;;;1.70;;
43014;SDS011;28637;50.554;7.032;2023-05-07T04:18:39;4.13;;;2.00;;
43014;SDS011;28637;50.554;7.032;2023-05-07T04:23:39;3.47;;;1.70;;
43014;SDS011;28637;50.554;7.032;2023-05-07T04:28:40;4.97;;;1.83;;
43014;SDS011;28637;50.554;7.032;2023-05-07T04:33:41;2.77;;;1.80;;
43014;SDS011;28637;50.554;7.032;2023-05-07T04:38:41;2.07;;;1.87;;
43014;SDS011;28637;50.554;7.032;2023-05-07T04:43:42;2.93;;;2.50;;
43014;SDS011;28637;50.554;7.032;2023-05-07T04:48:42;2.87;;;1.90;;
43014;SDS011;28637;50.554;7.032;2023-05-07T04:53:43;2.40;;;1.93;;
43014;SDS011;28637;50.554;7.032;2023-05-07T04:58:44;2.30;;;1.80;;
43014;SDS011;28637;50.554;7.032;2023-05-07T05:03:44;1.70;;;1.60;;
43014;SDS011;28637;50.554;7.032;2023-05-07T05:08:45;2.20;;;1.80;;
43014;SDS011;28637;50.554;7.032;2023-05-07T05:13:46;2.83;;;2.13;;
43014;SDS011;28637;50.554;7.032;2023-05-07T05:18:48;3.42;;;2.08;;
43014;SDS011;28637;50.554;7.032;2023-05-07T05:23:49;3.40;;;1.90;;
43014;SDS011;28637;50.554;7.032;2023-05-07T05:28:50;4.63;;;2.10;;
43014;SDS011;28637;50.554;7.032;2023-05-07T05:33:51;3.17;;;2.40;;
43014;SDS011;28637;50.554;7.032;2023-05-07T05:38:51;3.10;;;2.00;;
43014;SDS011;28637;50.554;7.032;2023-05-07T05:43:52;2.00;;;1.80;;
43014;SDS011;28637;50.554;7.032;2023-05-07T05:48:53;2.78;;;1.85;;
43014;SDS011;28637;50.554;7.032;2023-05-07T05:53:54;4.17;;;1.73;;
43014;SDS011;28637;50.554;7.032;2023-05-07T05:58:54;2.30;;;1.73;;
43014;SDS011;28637;50.554;7.032;2023-05-07T06:03:55;1.70;;;1.60;;
43014;SDS011;28637;50.554;7.032;2023-05-07T06:08:57;2.30;;;1.93;;
43014;SDS011;28637;50.554;7.032;2023-05-07T06:13:57;2.55;;;1.92;;
43014;SDS011;28637;50.554;7.032;2023-05-07T06:18:58;4.77;;;1.83;;
43014;SDS011;28637;50.554;7.032;2023-05-07T06:23:58;2.83;;;1.70;;
43014;SDS011;28637;50.554;7.032;2023-05-07T06:28:59;2.90;;;2.00;;
43014;SDS011;28637;50.554;7.032;2023-05-07T06:34:00;1.77;;;1.67;;
43014;SDS011;28637;50.554;7.032;2023-05-07T06:39:02;3.92;;;1.70;;
43014;SDS011;28637;50.554;7.032;2023-05-07T06:44:02;2.53;;;1.50;;
43014;SDS011;28637;50.554;7.032;2023-05-07T06:49:03;2.57;;;1.77;;
43014;SDS011;28637;50.554;7.032;2023-05-07T06:54:04;2.50;;;1.97;;
43014;SDS011;28637;50.554;7.032;2023-05-07T06:59:05;2.70;;;1.97;;
43014;SDS011;28637;50.554;7.032;2023-05-07T07:04:06;4.70;;;2.00;;
43014;SDS011;28637;50.554;7.032;2023-05-07T07:09:07;3.07;;;1.80;;
43014;SDS011;28637;50.554;7.032;2023-05-07T07:14:07;1.57;;;1.47;;
43014;SDS011;28637;50.554;7.032;2023-05-07T07:19:08;3.60;;;1.63;;
43014;SDS011;28637;50.554;7.032;2023-05-07T07:24:09;1.93;;;1.70;;
43014;SDS011;28637;50.554;7.032;2023-05-07T07:29:09;5.50;;;1.70;;
43014;SDS011;28637;50.554;7.032;2023-05-07T07:34:10;2.80;;;1.70;;
43014;SDS011;28637;50.554;7.032;2023-05-07T07:39:10;1.50;;;1.40;;
43014;SDS011;28637;50.554;7.032;2023-05-07T07:44:11;1.83;;;1.50;;
43014;SDS011;28637;50.554;7.032;2023-05-07T07:54:13;1.83;;;1.73;;
43014;SDS011;28637;50.554;7.032;2023-05-07T07:59:14;2.40;;;1.60;;
43014;SDS011;28637;50.554;7.032;2023-05-07T08:04:18;1.60;;;1.50;;
43014;SDS011;28637;50.554;7.032;2023-05-07T08:09:19;2.08;;;1.83;;
43014;SDS011;28637;50.554;7.032;2023-05-07T08:14:20;2.03;;;1.40;;
43014;SDS011;28637;50.554;7.032;2023-05-07T08:19:21;1.83;;;1.60;;
43014;SDS011;28637;50.554;7.032;2023-05-07T08:24:22;2.72;;;1.77;;
43014;SDS011;28637;50.554;7.032;2023-05-07T08:29:22;6.60;;;2.20;;
43014;SDS011;28637;50.554;7.032;2023-05-07T08:34:23;1.30;;;1.20;;
43014;SDS011;28637;50.554;7.032;2023-05-07T08:39:23;2.23;;;1.60;;
43014;SDS011;28637;50.554;7.032;2023-05-07T08:44:24;3.50;;;1.67;;
43014;SDS011;28637;50.554;7.032;2023-05-07T08:49:28;2.03;;;1.63;;
43014;SDS011;28637;50.554;7.032;2023-05-07T08:54:29;4.05;;;1.70;;
43014;SDS011;28637;50.554;7.032;2023-05-07T08:59:30;2.03;;;1.40;;
43014;SDS011;28637;50.554;7.032;2023-05-07T09:04:31;3.60;;;1.50;;
43014;SDS011;28637;50.554;7.032;2023-05-07T09:09:32;1.60;;;1.50;;
43014;SDS011;28637;50.554;7.032;2023-05-07T09:14:33;2.70;;;1.30;;
43014;SDS011;28637;50.554;7.032;2023-05-07T09:19:34;2.13;;;1.60;;
43014;SDS011;28637;50.554;7.032;2023-05-07T09:24:35;1.70;;;1.60;;
43014;SDS011;28637;50.554;7.032;2023-05-07T09:29:37;4.35;;;1.70;;
43014;SDS011;28637;50.554;7.032;2023-05-07T09:34:38;2.17;;;1.50;;
43014;SDS011;28637;50.554;7.032;2023-05-07T09:39:48;1.67;;;1.40;;
43014;SDS011;28637;50.554;7.032;2023-05-07T09:44:49;1.88;;;1.58;;
43014;SDS011;28637;50.554;7.032;2023-05-07T09:49:52;1.65;;;1.55;;
43014;SDS011;28637;50.554;7.032;2023-05-07T09:54:57;4.43;;;2.00;;
43014;SDS011;28637;50.554;7.032;2023-05-07T09:59:59;4.13;;;1.63;;
43014;SDS011;28637;50.554;7.032;2023-05-07T10:05:02;2.80;;;1.60;;
43014;SDS011;28637;50.554;7.032;2023-05-07T10:10:04;2.33;;;1.70;;
43014;SDS011;28637;50.554;7.032;2023-05-07T10:15:06;3.63;;;1.35;;
43014;SDS011;28637;50.554;7.032;2023-05-07T10:20:10;2.22;;;1.60;;
43014;SDS011;28637;50.554;7.032;2023-05-07T10:35:30;1.60;;;1.50;;
43014;SDS011;28637;50.554;7.032;2023-05-07T10:40:36;5.00;;;1.80;;
43014;SDS011;28637;50.554;7.032;2023-05-07T10:50:37;1.70;;;1.50;;
43014;SDS011;28637;50.554;7.032;2023-05-07T10:55:39;1.88;;;1.30;;
43014;SDS011;28637;50.554;7.032;2023-05-07T11:00:43;1.65;;;1.50;;
43014;SDS011;28637;50.554;7.032;2023-05-07T11:10:56;2.10;;;1.45;;
43014;SDS011;28637;50.554;7.032;2023-05-07T11:15:58;2.22;;;1.55;;
43014;SDS011;28637;50.554;7.032;2023-05-07T11:26:00;4.53;;;2.80;;
43014;SDS011;28637;50.554;7.032;2023-05-07T11:31:05;5.80;;;3.97;;
43014;SDS011;28637;50.554;7.032;2023-05-07T11:41:07;1.80;;;1.40;;
43014;SDS011;28637;50.554;7.032;2023-05-07T11:51:09;2.17;;;1.40;;
43014;SDS011;28637;50.554;7.032;2023-05-07T11:56:13;1.92;;;1.20;;
43014;SDS011;28637;50.554;7.032;2023-05-07T12:01:15;1.30;;;1.20;;
43014;SDS011;28637;50.554;7.032;2023-05-07T12:06:16;2.65;;;1.23;;
43014;SDS011;28637;50.554;7.032;2023-05-07T12:11:24;1.25;;;1.15;;
43014;SDS011;28637;50.554;7.032;2023-05-07T12:16:25;3.05;;;1.73;;
43014;SDS011;28637;50.554;7.032;2023-05-07T12:21:27;6.53;;;2.10;;
43014;SDS011;28637;50.554;7.032;2023-05-07T12:26:28;8.80;;;3.95;;
43014;SDS011;28637;50.554;7.032;2023-05-07T12:36:36;7.20;;;2.97;;
43014;SDS011;28637;50.554;7.032;2023-05-07T12:41:57;20.83;;;9.70;;
43014;SDS011;28637;50.554;7.032;2023-05-07T12:47:01;9.52;;;4.68;;
43014;SDS011;28637;50.554;7.032;2023-05-07T12:52:02;20.02;;;9.18;;
43014;SDS011;28637;50.554;7.032;2023-05-07T13:02:08;5.97;;;3.50;;
43014;SDS011;28637;50.554;7.032;2023-05-07T13:07:09;13.98;;;5.28;;
43014;SDS011;28637;50.554;7.032;2023-05-07T13:12:09;6.82;;;3.78;;
43014;SDS011;28637;50.554;7.032;2023-05-07T13:17:10;4.78;;;2.33;;
43014;SDS011;28637;50.554;7.032;2023-05-07T13:22:11;4.53;;;2.30;;
43014;SDS011;28637;50.554;7.032;2023-05-07T13:27:11;9.88;;;2.90;;
43014;SDS011;28637;50.554;7.032;2023-05-07T13:32:12;5.53;;;2.80;;
43014;SDS011;28637;50.554;7.032;2023-05-07T13:37:13;6.10;;;2.30;;
43014;SDS011;28637;50.554;7.032;2023-05-07T13:42:13;4.47;;;2.40;;
43014;SDS011;28637;50.554;7.032;2023-05-07T13:47:14;4.45;;;2.60;;
43014;SDS011;28637;50.554;7.032;2023-05-07T13:52:15;3.85;;;2.20;;
43014;SDS011;28637;50.554;7.032;2023-05-07T13:57:16;4.65;;;2.00;;
43014;SDS011;28637;50.554;7.032;2023-05-07T14:02:17;4.90;;;2.50;;
43014;SDS011;28637;50.554;7.032;2023-05-07T14:07:18;3.83;;;2.00;;
43014;SDS011;28637;50.554;7.032;2023-05-07T14:12:18;7.27;;;1.90;;
43014;SDS011;28637;50.554;7.032;2023-05-07T14:17:19;7.87;;;2.00;;
43014;SDS011;28637;50.554;7.032;2023-05-07T14:22:20;5.57;;;1.90;;
43014;SDS011;28637;50.554;7.032;2023-05-07T14:27:22;5.10;;;2.25;;
43014;SDS011;28637;50.554;7.032;2023-05-07T14:32:23;4.23;;;2.00;;
43014;SDS011;28637;50.554;7.032;2023-05-07T14:37:23;3.47;;;2.13;;
43014;SDS011;28637;50.554;7.032;2023-05-07T14:42:24;2.97;;;1.90;;
43014;SDS011;28637;50.554;7.032;2023-05-07T14:47:25;5.95;;;2.15;;
43014;SDS011;28637;50.554;7.032;2023-05-07T14:52:26;3.57;;;2.03;;
43014;SDS011;28637;50.554;7.032;2023-05-07T14:57:26;4.68;;;2.00;;
43014;SDS011;28637;50.554;7.032;2023-05-07T15:02:27;4.10;;;2.20;;
43014;SDS011;28637;50.554;7.032;2023-05-07T15:07:28;3.95;;;2.10;;
43014;SDS011;28637;50.554;7.032;2023-05-07T15:12:29;3.93;;;2.53;;
43014;SDS011;28637;50.554;7.032;2023-05-07T15:17:30;3.30;;;2.13;;
43014;SDS011;28637;50.554;7.032;2023-05-07T15:22:30;3.60;;;2.60;;
43014;SDS011;28637;50.554;7.032;2023-05-07T15:27:31;4.03;;;2.57;;
43014;SDS011;28637;50.554;7.032;2023-05-07T15:32:32;4.07;;;2.60;;
43014;SDS011;28637;50.554;7.032;2023-05-07T15:37:32;2.90;;;2.60;;
43014;SDS011;28637;50.554;7.032;2023-05-07T15:42:33;3.63;;;2.55;;
43014;SDS011;28637;50.554;7.032;2023-05-07T15:47:37;5.60;;;2.80;;
43014;SDS011;28637;50.554;7.032;2023-05-07T15:52:38;4.75;;;2.90;;
43014;SDS011;28637;50.554;7.032;2023-05-07T15:57:39;6.70;;;3.40;;
43014;SDS011;28637;50.554;7.032;2023-05-07T16:02:40;3.60;;;2.60;;
43014;SDS011;28637;50.554;7.032;2023-05-07T16:07:41;5.17;;;2.80;;
43014;SDS011;28637;50.554;7.032;2023-05-07T16:17:53;5.45;;;2.53;;
43014;SDS011;28637;50.554;7.032;2023-05-07T16:22:57;4.07;;;2.67;;
43014;SDS011;28637;50.554;7.032;2023-05-07T16:27:57;5.57;;;2.85;;
43014;SDS011;28637;50.554;7.032;2023-05-07T16:32:58;4.77;;;2.70;;
43014;SDS011;28637;50.554;7.032;2023-05-07T16:37:59;3.97;;;2.90;;
43014;SDS011;28637;50.554;7.032;2023-05-07T16:43:00;5.77;;;2.93;;
43014;SDS011;28637;50.554;7.032;2023-05-07T16:48:00;3.10;;;2.73;;
43014;SDS011;28637;50.554;7.032;2023-05-07T16:53:04;3.40;;;2.58;;
43014;SDS011;28637;50.554;7.032;2023-05-07T16:58:06;4.97;;;2.97;;
43014;SDS011;28637;50.554;7.032;2023-05-07T17:03:08;5.15;;;2.90;;
43014;SDS011;28637;50.554;7.032;2023-05-07T17:08:09;3.58;;;2.70;;
43014;SDS011;28637;50.554;7.032;2023-05-07T17:13:09;5.83;;;3.17;;
43014;SDS011;28637;50.554;7.032;2023-05-07T17:18:11;4.68;;;3.20;;
43014;SDS011;28637;50.554;7.032;2023-05-07T17:23:11;4.53;;;3.00;;
43014;SDS011;28637;50.554;7.032;2023-05-07T17:28:13;3.77;;;2.90;;
43014;SDS011;28637;50.554;7.032;2023-05-07T17:33:14;5.28;;;3.13;;
43014;SDS011;28637;50.554;7.032;2023-05-07T17:38:14;4.20;;;2.80;;
43014;SDS011;28637;50.554;7.032;2023-05-07T17:43:15;4.53;;;2.70;;
43014;SDS011;28637;50.554;7.032;2023-05-07T17:48:15;4.77;;;2.43;;
43014;SDS011;28637;50.554;7.032;2023-05-07T17:53:16;5.13;;;3.07;;
43014;SDS011;28637;50.554;7.032;2023-05-07T17:58:17;4.50;;;2.57;;
43014;SDS011;28637;50.554;7.032;2023-05-07T18:03:17;4.97;;;2.70;;
43014;SDS011;28637;50.554;7.032;2023-05-07T18:08:18;5.73;;;2.90;;
43014;SDS011;28637;50.554;7.032;2023-05-07T18:13:19;6.57;;;3.03;;
43014;SDS011;28637;50.554;7.032;2023-05-07T18:18:20;2.73;;;2.50;;
43014;SDS011;28637;50.554;7.032;2023-05-07T18:23:21;3.90;;;2.67;;
43014;SDS011;28637;50.554;7.032;2023-05-07T18:28:21;2.73;;;2.23;;
43014;SDS011;28637;50.554;7.032;2023-05-07T18:33:22;4.73;;;2.83;;
43014;SDS011;28637;50.554;7.032;2023-05-07T18:38:23;4.10;;;2.57;;
43014;SDS011;28637;50.554;7.032;2023-05-07T18:43:23;5.50;;;2.63;;
43014;SDS011;28637;50.554;7.032;2023-05-07T18:48:24;3.70;;;2.87;;
43014;SDS011;28637;50.554;7.032;2023-05-07T18:53:25;6.97;;;2.70;;
43014;SDS011;28637;50.554;7.032;2023-05-07T18:58:25;4.70;;;3.00;;
43014;SDS011;28637;50.554;7.032;2023-05-07T19:03:26;12.53;;;5.53;;
43014;SDS011;28637;50.554;7.032;2023-05-07T19:08:27;13.73;;;5.10;;
43014;SDS011;28637;50.554;7.032;2023-05-07T19:13:27;11.23;;;4.83;;
43014;SDS011;28637;50.554;7.032;2023-05-07T19:18:28;8.67;;;4.90;;
43014;SDS011;28637;50.554;7.032;2023-05-07T19:23:31;10.90;;;6.70;;
43014;SDS011;28637;50.554;7.032;2023-05-07T19:28:32;8.77;;;5.97;;
43014;SDS011;28637;50.554;7.032;2023-05-07T19:33:32;3.90;;;3.30;;
43014;SDS011;28637;50.554;7.032;2023-05-07T19:38:33;4.97;;;4.37;;
43014;SDS011;28637;50.554;7.032;2023-05-07T19:43:34;5.87;;;3.53;;
43014;SDS011;28637;50.554;7.032;2023-05-07T19:48:37;7.30;;;3.55;;
43014;SDS011;28637;50.554;7.032;2023-05-07T19:53:37;6.13;;;3.47;;
43014;SDS011;28637;50.554;7.032;2023-05-07T19:58:38;4.77;;;3.90;;
43014;SDS011;28637;50.554;7.032;2023-05-07T20:03:39;3.67;;;2.83;;
43014;SDS011;28637;50.554;7.032;2023-05-07T20:13:42;2.95;;;2.35;;
43014;SDS011;28637;50.554;7.032;2023-05-07T20:18:42;2.50;;;2.30;;
43014;SDS011;28637;50.554;7.032;2023-05-07T20:23:43;2.57;;;2.30;;
43014;SDS011;28637;50.554;7.032;2023-05-07T20:28:44;3.30;;;2.03;;
43014;SDS011;28637;50.554;7.032;2023-05-07T20:33:44;2.27;;;1.90;;
43014;SDS011;28637;50.554;7.032;2023-05-07T20:38:45;1.87;;;1.70;;
43014;SDS011;28637;50.554;7.032;2023-05-07T20:43:46;2.27;;;1.70;;
43014;SDS011;28637;50.554;7.032;2023-05-07T20:48:47;1.80;;;1.60;;
43014;SDS011;28637;50.554;7.032;2023-05-07T20:53:48;1.67;;;1.55;;
43014;SDS011;28637;50.554;7.032;2023-05-07T20:58:49;4.30;;;1.70;;
43014;SDS011;28637;50.554;7.032;2023-05-07T21:03:49;5.53;;;1.63;;
43014;SDS011;28637;50.554;7.032;2023-05-07T21:08:52;1.58;;;1.48;;
43014;SDS011;28637;50.554;7.032;2023-05-07T21:13:53;9.67;;;2.10;;
43014;SDS011;28637;50.554;7.032;2023-05-07T21:18:54;3.17;;;1.60;;
43014;SDS011;28637;50.554;7.032;2023-05-07T21:23:54;1.67;;;1.40;;
43014;SDS011;28637;50.554;7.032;2023-05-07T21:28:55;2.40;;;1.93;;
43014;SDS011;28637;50.554;7.032;2023-05-07T21:33:56;3.30;;;1.40;;
43014;SDS011;28637;50.554;7.032;2023-05-07T21:38:57;6.93;;;1.50;;
43014;SDS011;28637;50.554;7.032;2023-05-07T21:43:57;3.33;;;1.30;;
43014;SDS011;28637;50.554;7.032;2023-05-07T21:48:58;1.63;;;1.40;;
43014;SDS011;28637;50.554;7.032;2023-05-07T21:53:59;1.83;;;1.43;;
43014;SDS011;28637;50.554;7.032;2023-05-07T21:58:59;2.17;;;1.40;;
43014;SDS011;28637;50.554;7.032;2023-05-07T22:04:00;2.43;;;1.53;;
43014;SDS011;28637;50.554;7.032;2023-05-07T22:09:00;2.50;;;2.20;;
43014;SDS011;28637;50.554;7.032;2023-05-07T22:14:02;1.88;;;1.55;;
43014;SDS011;28637;50.554;7.032;2023-05-07T22:19:03;2.90;;;1.70;;
43014;SDS011;28637;50.554;7.032;2023-05-07T22:24:03;2.13;;;1.93;;
43014;SDS011;28637;50.554;7.032;2023-05-07T22:29:06;2.22;;;1.80;;
43014;SDS011;28637;50.554;7.032;2023-05-07T22:34:06;3.50;;;2.30;;
43014;SDS011;28637;50.554;7.032;2023-05-07T22:39:07;4.23;;;2.23;;
43014;SDS011;28637;50.554;7.032;2023-05-07T22:44:08;3.35;;;2.05;;
43014;SDS011;28637;50.554;7.032;2023-05-07T22:49:09;4.17;;;2.30;;
43014;SDS011;28637;50.554;7.032;2023-05-07T22:54:10;2.47;;;2.00;;
43014;SDS011;28637;50.554;7.032;2023-05-07T22:59:10;2.40;;;2.00;;
43014;SDS011;28637;50.554;7.032;2023-05-07T23:04:12;2.10;;;1.85;;
43014;SDS011;28637;50.554;7.032;2023-05-07T23:09:12;9.77;;;2.30;;
43014;SDS011;28637;50.554;7.032;2023-05-07T23:14:13;2.20;;;2.00;;
43014;SDS011;28637;50.554;7.032;2023-05-07T23:19:14;8.17;;;1.80;;
43014;SDS011;28637;50.554;7.032;2023-05-07T23:24:15;6.70;;;1.70;;
43014;SDS011;28637;50.554;7.032;2023-05-07T23:29:16;2.50;;;1.53;;
43014;SDS011;28637;50.554;7.032;2023-05-07T23:34:17;2.07;;;1.50;;
43014;SDS011;28637;50.554;7.032;2023-05-07T23:39:22;3.88;;;1.60;;
43014;SDS011;28637;50.554;7.032;2023-05-07T23:44:23;4.30;;;1.90;;
43014;SDS011;28637;50.554;7.032;2023-05-07T23:49:23;3.53;;;1.80;;
43014;SDS011;28637;50.554;7.032;2023-05-07T23:54:24;1.70;;;1.60;;
43014;SDS011;28637;50.554;7.032;2023-05-07T23:59:25;1.80;;;1.70;;
